M I D A S
Marine Information and Data Acquisition System
Tripno 1712 of the Zeeleeuw from 2009-06-18 03:42:29 to 2009-06-18 13:24:37
Back to CruiseResearch ActivitiesStationsMapUnderway DataData graphs

EquipmentUnitsComment
TimeDGPSUTC
LatitudeDGPSDM.mWGS84
LongitudeDGPSDM.mWGS84
HeadingGyrodeg 
SOGDGPSknotsSpeed over ground
COGDGPSdegCourse over ground
DepthEcho soundermeters200 kHz
Missing or incorrect values are displayed as -999
Navigation data collected by the RV Zeeleeuw from 2009-06-18 03:35:18 to 2009-06-18 13:55:10
Time Latitude Longitude Heading SOG COG Depth
2009-06-18 03:36:27 51°13.678 2°55.895 110.2 3.2 290 -999
2009-06-18 03:37:27 51°13.694 2°55.812 105.3 3.3 285 -999
2009-06-18 03:38:26 51°13.703 2°55.776 82.1 0.5 55 11.7
2009-06-18 03:39:25 51°13.7 2°55.76 57.5 0.1 328 -999
2009-06-18 03:40:25 51°13.7 2°55.763 21.3 1.2 194 12.7
2009-06-18 03:41:26 51°13.717 2°55.754 338.6 3.3 334 12.8
2009-06-18 03:42:24 51°13.8 2°55.662 327.3 7.9 326 10.2
2009-06-18 03:43:23 51°13.924 2°55.56 335.9 8.9 335 10.5
2009-06-18 03:44:23 51°14.06 2°55.457 336.6 9.2 334 10.3
2009-06-18 03:45:23 51°14.195 2°55.34 326.7 9.4 324 10.2
2009-06-18 03:46:23 51°14.315 2°55.161 315.1 10.5 313 10.1
2009-06-18 03:47:23 51°14.432 2°54.942 312.4 11 310 10.2
2009-06-18 03:48:23 51°14.533 2°54.694 299.8 11.3 294 10.3
2009-06-18 03:49:23 51°14.589 2°54.405 284 11.5 279 10.5
2009-06-18 03:50:23 51°14.616 2°54.099 282.3 11.6 280 10.6
2009-06-18 03:51:23 51°14.653 2°53.799 284 11.5 280 10.4
2009-06-18 03:52:23 51°14.691 2°53.502 286.5 11.4 282 9.1
2009-06-18 03:53:23 51°14.733 2°53.205 285.8 11.5 283 9.2
2009-06-18 03:54:23 51°14.773 2°52.909 285.7 11.4 282 9.4
2009-06-18 03:55:23 51°14.814 2°52.614 285.7 11.4 281 9.5
2009-06-18 03:56:23 51°14.855 2°52.319 286.2 11.4 284 9.8
2009-06-18 03:57:23 51°14.896 2°52.023 285.3 11.4 281 10.3
2009-06-18 03:58:23 51°14.939 2°51.728 285.8 11.5 282 10.7
2009-06-18 03:59:23 51°14.977 2°51.432 285.3 11.5 281 11.4
2009-06-18 04:00:23 51°15.017 2°51.134 286.3 11.6 281 12
2009-06-18 04:01:23 51°15.053 2°50.831 284.8 11.6 280 12.4
2009-06-18 04:02:23 51°15.098 2°50.535 290.5 11.5 287 12.6
2009-06-18 04:03:23 51°15.156 2°50.244 292.3 11.5 287 12.8
2009-06-18 04:04:23 51°15.214 2°49.953 292.4 11.5 289 12.9
2009-06-18 04:05:23 51°15.273 2°49.663 291.9 11.6 287 13
2009-06-18 04:06:23 51°15.329 2°49.369 291.1 11.5 287 13
2009-06-18 04:07:23 51°15.384 2°49.078 290.4 11.3 286 13.1
2009-06-18 04:08:23 51°15.437 2°48.788 290.7 11.4 287 11.8
2009-06-18 04:09:23 51°15.499 2°48.505 295.6 11.3 290 10.5
2009-06-18 04:10:23 51°15.564 2°48.223 294.6 11.4 289 10.9
2009-06-18 04:11:23 51°15.625 2°47.936 294.3 11.5 289 12
2009-06-18 04:12:23 51°15.689 2°47.649 296.1 11.4 293 13.9
2009-06-18 04:13:23 51°15.762 2°47.369 297.2 11.4 293 15.3
2009-06-18 04:14:23 51°15.836 2°47.091 297.2 11.4 293 16.6
2009-06-18 04:15:23 51°15.913 2°46.817 300.2 11.3 297 17
2009-06-18 04:16:23 51°15.998 2°46.552 301.2 11.3 297 15.2
2009-06-18 04:17:23 51°16.082 2°46.285 301 11.2 296 13
2009-06-18 04:18:23 51°16.164 2°46.019 300.7 11.1 297 11.5
2009-06-18 04:19:23 51°16.244 2°45.754 300.5 11.1 295 10.8
2009-06-18 04:20:23 51°16.339 2°45.506 310 11 305 11.3
2009-06-18 04:21:24 51°16.447 2°45.267 312.2 11 306 11.9
2009-06-18 04:22:23 51°16.551 2°45.033 310.6 11 305 12.2
2009-06-18 04:23:23 51°16.654 2°44.791 310.5 11.1 304 12.7
2009-06-18 04:24:24 51°16.762 2°44.546 311.1 11.1 305 14
2009-06-18 04:25:23 51°16.865 2°44.305 310.2 11.2 303 15.8
2009-06-18 04:26:23 51°16.968 2°44.056 310.7 11.2 303 15.9
2009-06-18 04:27:23 51°17.072 2°43.808 310.5 11.3 303 14.7
2009-06-18 04:28:23 51°17.176 2°43.56 310.5 11.3 305 15.2
2009-06-18 04:29:23 51°17.28 2°43.313 310.6 11.2 304 13.2
2009-06-18 04:30:24 51°17.387 2°43.065 309.3 11.2 305 12
2009-06-18 04:31:23 51°17.494 2°42.829 309.5 11.2 305 13.5
2009-06-18 04:32:23 51°17.605 2°42.587 310 11.3 306 22.3
2009-06-18 04:33:24 51°17.717 2°42.338 310 11.3 306 24
2009-06-18 04:34:23 51°17.825 2°42.097 310 11.4 304 24.4
2009-06-18 04:35:23 51°17.933 2°41.85 311.1 11.4 306 24.6
2009-06-18 04:36:23 51°18.04 2°41.6 309.6 11.4 303 23.6
2009-06-18 04:37:23 51°18.147 2°41.351 310.5 11.4 304 22.4
2009-06-18 04:38:24 51°18.256 2°41.099 310.4 11.3 305 20.9
2009-06-18 04:39:23 51°18.366 2°40.859 311.2 11.4 307 15.7
2009-06-18 04:40:24 51°18.48 2°40.612 310.8 11.3 307 12
2009-06-18 04:41:23 51°18.59 2°40.372 310 11.4 306 17.7
2009-06-18 04:42:23 51°18.703 2°40.127 308.9 11.5 306 24.2
2009-06-18 04:43:23 51°18.816 2°39.882 310.3 11.5 307 24.6
2009-06-18 04:44:24 51°18.931 2°39.634 310 11.4 305 24.8
2009-06-18 04:45:23 51°19.039 2°39.392 310 11.4 305 26.6
2009-06-18 04:46:23 51°19.15 2°39.146 311.1 11.4 307 28.8
2009-06-18 04:47:24 51°19.264 2°38.897 310.7 11.4 306 29.2
2009-06-18 04:48:23 51°19.371 2°38.653 309.7 11.3 305 27.2
2009-06-18 04:49:23 51°19.48 2°38.406 309.7 11.3 306 24.2
2009-06-18 04:50:23 51°19.589 2°38.16 310.4 11.3 305 22.6
2009-06-18 04:51:23 51°19.698 2°37.916 310.7 11.3 305 23
2009-06-18 04:52:23 51°19.809 2°37.673 311.3 11.3 307 23.1
2009-06-18 04:53:23 51°19.922 2°37.428 311 11.4 307 22.5
2009-06-18 04:54:23 51°20.035 2°37.184 310 11.4 306 22.6
2009-06-18 04:55:23 51°20.146 2°36.941 310.4 11.3 307 22.8
2009-06-18 04:56:23 51°20.255 2°36.697 309.3 11.3 305 23.1
2009-06-18 04:57:23 51°20.365 2°36.454 310.9 11.3 306 21.7
2009-06-18 04:58:23 51°20.476 2°36.208 310.6 11.3 307 20.2
2009-06-18 04:59:23 51°20.588 2°35.964 310 11.3 306 21.1
2009-06-18 05:00:23 51°20.699 2°35.719 310 11.4 306 28.1
2009-06-18 05:01:23 51°20.811 2°35.472 310.4 11.5 306 27.2
2009-06-18 05:02:23 51°20.923 2°35.226 310.7 11.5 306 31.6
2009-06-18 05:03:23 51°21.038 2°34.981 310.7 11.5 308 32.8
2009-06-18 05:04:23 51°21.154 2°34.738 312.9 11.5 312 32.2
2009-06-18 05:05:23 51°21.296 2°34.536 325.5 11.5 322 31.8
2009-06-18 05:06:24 51°21.455 2°34.36 330.6 11.6 330 32
2009-06-18 05:07:23 51°21.618 2°34.209 333.3 11.5 330 32.1
2009-06-18 05:08:23 51°21.782 2°34.059 333.7 11.2 332 30.7
2009-06-18 05:09:24 51°21.949 2°33.92 336.6 11.1 332 26.5
2009-06-18 05:10:23 51°22.108 2°33.785 333.2 11 330 25.6
2009-06-18 05:11:23 51°22.265 2°33.637 332.7 11 329 29.8
2009-06-18 05:12:24 51°22.425 2°33.481 331.6 11.1 329 31.8
2009-06-18 05:13:23 51°22.582 2°33.333 332 11.2 329 32.6
2009-06-18 05:14:24 51°22.746 2°33.181 332.1 11.2 331 32.6
2009-06-18 05:15:24 51°22.907 2°33.031 332.5 11.2 332 32.5
2009-06-18 05:16:23 51°23.065 2°32.882 333 11.3 329 32.1
2009-06-18 05:17:23 51°23.228 2°32.73 332.4 11.4 329 31.9
2009-06-18 05:18:24 51°23.394 2°32.578 332.2 11.3 330 33.6
2009-06-18 05:19:23 51°23.555 2°32.432 332.3 11.3 331 30.1
2009-06-18 05:20:23 51°23.716 2°32.286 332.3 11.1 330 26.9
2009-06-18 05:21:24 51°23.88 2°32.139 332 11.1 331 23.9
2009-06-18 05:22:23 51°24.037 2°31.996 331.3 11.1 330 23.5
2009-06-18 05:23:24 51°24.206 2°31.871 341.7 11.1 345 24.4
2009-06-18 05:24:24 51°24.386 2°31.809 356.2 11.2 352 30.2
2009-06-18 05:25:23 51°24.57 2°31.778 350.4 11.3 349 32.2
2009-06-18 05:26:23 51°24.726 2°31.73 355 6.7 356 33.5
2009-06-18 05:27:24 51°24.806 2°31.731 344.8 3.5 349 30.8
2009-06-18 05:28:23 51°24.864 2°31.723 3.5 3.1 10 34.8
2009-06-18 05:29:23 51°24.906 2°31.728 349.5 1.9 2 34.7
2009-06-18 05:30:23 51°24.935 2°31.72 325.2 2 328 34.8
2009-06-18 05:31:23 51°24.955 2°31.672 297.8 2.6 303 34.1
2009-06-18 05:32:23 51°24.983 2°31.644 340.7 1.6 352 34.7
2009-06-18 05:33:23 51°25.004 2°31.644 347 1 10 34.9
2009-06-18 05:34:23 51°25.017 2°31.65 344.7 0.8 22 34.9
2009-06-18 05:35:23 51°25.027 2°31.659 344.3 0.6 43 35
2009-06-18 05:36:23 51°25.034 2°31.673 347.7 0.7 65 35
2009-06-18 05:37:23 51°25.037 2°31.691 355.1 0.8 80 35.1
2009-06-18 05:38:23 51°25.038 2°31.711 8.3 0.8 94 35.2
2009-06-18 05:39:23 51°25.038 2°31.731 17.7 0.8 91 34.9
2009-06-18 05:40:23 51°25.037 2°31.75 24.6 0.6 91 34.2
2009-06-18 05:41:24 51°25.036 2°31.771 30.4 0.8 98 33.4
2009-06-18 05:42:23 51°25.036 2°31.791 30.2 0.8 94 32.2
2009-06-18 05:43:23 51°25.037 2°31.811 30 0.8 89 30.8
2009-06-18 05:44:23 51°25.038 2°31.833 27.7 0.8 88 30
2009-06-18 05:45:24 51°25.044 2°31.858 29.8 1.4 51 34.6
2009-06-18 05:46:23 51°25.066 2°31.908 57.9 3 63 34.4
2009-06-18 05:47:23 51°25.075 2°31.991 102.6 3.1 99 33.4
2009-06-18 05:48:24 51°25.059 2°32.053 133.1 2.1 121 31.7
2009-06-18 05:49:23 51°25.042 2°32.093 151.6 1.6 128 34.3
2009-06-18 05:50:23 51°25.028 2°32.12 168.8 1.3 127 33.1
2009-06-18 05:51:23 51°25.012 2°32.142 178.7 1.5 146 32.2
2009-06-18 05:52:23 51°24.983 2°32.162 180.8 2.4 162 32.9
2009-06-18 05:53:24 51°24.941 2°32.201 153.5 3.4 143 27.6
2009-06-18 05:54:23 51°24.9 2°32.261 147 3.1 135 28.2
2009-06-18 05:55:24 51°24.869 2°32.32 145.5 2.6 128 27.3
2009-06-18 05:56:23 51°24.845 2°32.369 150.3 2.2 127 25.7
2009-06-18 05:57:23 51°24.82 2°32.414 156.2 2.8 135 26.1
2009-06-18 05:58:23 51°24.788 2°32.481 128.5 3.5 115 26.4
2009-06-18 05:59:23 51°24.757 2°32.565 141.9 3.8 128 23.8
2009-06-18 06:00:23 51°24.719 2°32.667 114.9 5.1 110 20.9
2009-06-18 06:01:24 51°24.675 2°32.79 129.6 5 119 20.4
2009-06-18 06:02:24 51°24.651 2°32.893 110.5 3.5 104 22.7
2009-06-18 06:03:23 51°24.642 2°32.961 117.1 2.3 107 22.3
2009-06-18 06:04:24 51°24.637 2°33.003 143.1 1.3 96 24.2
2009-06-18 06:05:23 51°24.635 2°33.035 157.1 1.1 96 25.6
2009-06-18 06:06:23 51°24.617 2°33.06 197 1.8 169 25.7
2009-06-18 06:07:23 51°24.581 2°33.053 220.5 2.4 204 25.8
2009-06-18 06:08:23 51°24.557 2°33.01 253.4 2.2 247 23.5
2009-06-18 06:09:23 51°24.546 2°32.95 260.2 2.1 256 23.8
2009-06-18 06:10:23 51°24.54 2°32.912 262.7 1 250 25.1
2009-06-18 06:11:24 51°24.538 2°32.9 266.2 0.2 89 26
2009-06-18 06:12:23 51°24.538 2°32.918 264.6 0.9 93 26.1
2009-06-18 06:13:23 51°24.537 2°32.946 251 1.2 92 24
2009-06-18 06:14:23 51°24.536 2°32.978 235.7 1.1 98 24.6
2009-06-18 06:15:23 51°24.531 2°33.003 230.2 0.8 135 25.7
2009-06-18 06:16:23 51°24.523 2°32.989 271.7 1.6 281 25.2
2009-06-18 06:17:23 51°24.54 2°32.948 281 1.4 293 22.7
2009-06-18 06:18:24 51°24.539 2°32.92 256.4 0.9 254 26.3
2009-06-18 06:19:23 51°24.542 2°32.902 285.3 0.9 313 25.8
2009-06-18 06:20:24 51°24.55 2°32.888 269.7 0.5 297 23.4
2009-06-18 06:21:23 51°24.543 2°32.884 226.3 0.8 172 23.9
2009-06-18 06:22:24 51°24.538 2°32.905 211.4 1.4 81 27
2009-06-18 06:23:23 51°24.541 2°32.943 199 1.5 79 24
2009-06-18 06:24:23 51°24.546 2°32.982 185.9 1.6 79 25.4
2009-06-18 06:25:24 51°24.55 2°33.023 179.7 1.5 82 24.3
2009-06-18 06:26:23 51°24.55 2°33.062 183.8 1.4 110 26.2
2009-06-18 06:27:24 51°24.533 2°33.082 219.7 1.3 184 27
2009-06-18 06:28:23 51°24.524 2°33.04 271.3 2.7 276 27.3
2009-06-18 06:29:24 51°24.538 2°32.956 268.3 3.4 271 23.2
2009-06-18 06:30:23 51°24.541 2°32.883 279.5 1.8 297 24
2009-06-18 06:31:24 51°24.555 2°32.862 290.4 0.9 337 22.2
2009-06-18 06:32:23 51°24.568 2°32.859 287.2 0.7 347 22
2009-06-18 06:33:23 51°24.57 2°32.86 245.9 0.3 157 21.9
2009-06-18 06:34:24 51°24.558 2°32.865 229.1 0.9 172 22.1
2009-06-18 06:35:23 51°24.545 2°32.865 237.2 0.7 161 21.9
2009-06-18 06:36:24 51°24.537 2°32.876 237.3 0.8 124 23.5
2009-06-18 06:37:23 51°24.537 2°32.909 234.2 1.5 86 26.7
2009-06-18 06:38:23 51°24.538 2°32.948 223.1 1.4 96 23.4
2009-06-18 06:39:23 51°24.53 2°32.966 240.6 0.6 187 23
2009-06-18 06:40:23 51°24.529 2°32.949 282.9 1.2 308 25.1
2009-06-18 06:41:24 51°24.536 2°32.921 253.7 1 248 27.3
2009-06-18 06:42:24 51°24.53 2°32.9 262.1 0.6 258 26.2
2009-06-18 06:43:24 51°24.528 2°32.901 252.1 0.5 107 25.9
2009-06-18 06:44:23 51°24.526 2°32.909 262.5 0.1 287 25.3
2009-06-18 06:45:24 51°24.54 2°32.893 297.5 1.2 340 25.1
2009-06-18 06:46:23 51°24.555 2°32.901 301.1 1.2 49 23.5
2009-06-18 06:47:24 51°24.563 2°32.936 306.9 1.2 40 24.8
2009-06-18 06:48:23 51°24.574 2°32.938 262.1 0.3 265 24.9
2009-06-18 06:49:24 51°24.569 2°32.948 228.6 0.8 115 24.9
2009-06-18 06:50:23 51°24.565 2°32.973 226.5 1.2 99 24.8
2009-06-18 06:51:23 51°24.563 2°33.008 226.1 1.4 92 23.3
2009-06-18 06:52:24 51°24.564 2°33.044 222.5 1.4 89 26.2
2009-06-18 06:53:23 51°24.566 2°33.084 220.8 1.6 84 26.1
2009-06-18 06:54:24 51°24.57 2°33.131 217.1 1.8 81 24.5
2009-06-18 06:55:23 51°24.576 2°33.177 204.9 1.9 78 27.8
2009-06-18 06:56:23 51°24.563 2°33.208 211.5 2.2 191 25
2009-06-18 06:57:24 51°24.557 2°33.164 285.1 1.6 312 28
2009-06-18 06:58:24 51°24.582 2°33.151 318.6 2.3 356 27.2
2009-06-18 06:59:24 51°24.62 2°33.176 2.9 2.5 39 26.1
2009-06-18 07:00:23 51°24.648 2°33.222 11.5 2.4 50 26.3
2009-06-18 07:01:24 51°24.672 2°33.269 7.8 2.1 52 28.5
2009-06-18 07:02:24 51°24.691 2°33.313 0.7 2 57 28.1
2009-06-18 07:03:23 51°24.707 2°33.356 359.1 1.8 62 26
2009-06-18 07:04:23 51°24.721 2°33.396 355.8 1.8 64 29.4
2009-06-18 07:05:24 51°24.732 2°33.44 356.6 1.8 70 26
2009-06-18 07:06:23 51°24.742 2°33.483 356.2 1.8 74 30.8
2009-06-18 07:07:23 51°24.756 2°33.526 354.1 2.3 34 29.6
2009-06-18 07:08:23 51°24.794 2°33.497 282.3 3.9 288 28.7
2009-06-18 07:09:23 51°24.761 2°33.36 238.6 7.2 236 27
2009-06-18 07:10:23 51°24.688 2°33.194 238.6 7.8 234 23.6
2009-06-18 07:11:23 51°24.618 2°33.02 243.5 7.7 243 25.3
2009-06-18 07:12:23 51°24.561 2°32.836 246.2 7.8 243 19.9
2009-06-18 07:13:24 51°24.503 2°32.65 246.7 7.7 244 15
2009-06-18 07:14:23 51°24.448 2°32.471 246.7 7.7 246 24.5
2009-06-18 07:15:24 51°24.392 2°32.282 245.4 7.8 244 25.8
2009-06-18 07:16:23 51°24.338 2°32.098 247.5 7.8 248 27.9
2009-06-18 07:17:23 51°24.29 2°31.903 249.3 7.9 248 28.5
2009-06-18 07:18:23 51°24.242 2°31.706 249.6 8 250 30.6
2009-06-18 07:19:23 51°24.196 2°31.508 249.1 7.9 249 36.1
2009-06-18 07:20:23 51°24.15 2°31.307 249 8 249 31.5
2009-06-18 07:21:24 51°24.112 2°31.145 248.3 5.3 248 33.9
2009-06-18 07:22:23 51°24.086 2°31.047 247.5 3.7 249 35.7
2009-06-18 07:23:23 51°24.058 2°30.939 247.5 4.8 248 35.6
2009-06-18 07:24:23 51°24.025 2°30.817 247 5.2 247 35.6
2009-06-18 07:25:23 51°23.984 2°30.664 247.4 6.8 246 34.6
2009-06-18 07:26:24 51°23.937 2°30.492 246.9 6.9 246 35.1
2009-06-18 07:27:23 51°23.885 2°30.328 244.4 7.1 244 35.6
2009-06-18 07:28:23 51°23.836 2°30.158 245.7 7 245 35.6
2009-06-18 07:29:23 51°23.791 2°29.994 246.1 5.4 245 35.2
2009-06-18 07:30:23 51°23.768 2°29.901 252.1 2.7 254 35.6
2009-06-18 07:31:24 51°23.757 2°29.853 247 1.4 248 35.5
2009-06-18 07:32:23 51°23.749 2°29.826 243.7 1 238 35.6
2009-06-18 07:33:24 51°23.741 2°29.799 255.7 1.2 261 35
2009-06-18 07:34:23 51°23.736 2°29.777 231.1 0.7 200 35.3
2009-06-18 07:35:23 51°23.733 2°29.793 209.3 0.9 85 32.5
2009-06-18 07:36:23 51°23.738 2°29.823 199.2 1.3 69 35.7
2009-06-18 07:37:23 51°23.746 2°29.858 187.8 1.4 69 35.6
2009-06-18 07:38:23 51°23.753 2°29.894 179.9 1.5 67 35.5
2009-06-18 07:39:23 51°23.745 2°29.923 206 1.2 165 35.4
2009-06-18 07:40:24 51°23.731 2°29.9 252.6 2.5 255 35.3
2009-06-18 07:41:23 51°23.739 2°29.802 287.5 3.5 298 34.5
2009-06-18 07:42:23 51°23.758 2°29.754 275.9 1.3 306 35
2009-06-18 07:43:23 51°23.756 2°29.728 225.8 1.1 202 35.6
2009-06-18 07:44:23 51°23.748 2°29.739 209.8 0.8 109 35.3
2009-06-18 07:45:23 51°23.745 2°29.763 213.8 0.9 91 35
2009-06-18 07:46:24 51°23.747 2°29.789 218.6 1.1 79 34.7
2009-06-18 07:47:24 51°23.752 2°29.82 220.1 1.3 73 35.7
2009-06-18 07:48:24 51°23.76 2°29.855 218.4 1.4 69 35.4
2009-06-18 07:49:24 51°23.769 2°29.892 211.8 1.4 66 35.8
2009-06-18 07:50:23 51°23.764 2°29.912 219.2 0.8 168 35.5
2009-06-18 07:51:24 51°23.751 2°29.873 262.6 2.6 276 35.3
2009-06-18 07:52:23 51°23.746 2°29.794 246.4 3.4 252 34.5
2009-06-18 07:53:23 51°23.749 2°29.751 281.7 0.8 2 35.1
2009-06-18 07:54:25 51°23.757 2°29.782 314.5 1.8 88 -999
2009-06-18 07:55:26 51°23.769 2°29.797 292.2 2.1 309 5
2009-06-18 07:56:25 51°23.756 2°29.756 213.5 1.5 189 35.1
2009-06-18 07:57:23 51°23.739 2°29.764 200.5 0.9 112 35.4
2009-06-18 07:58:24 51°23.737 2°29.789 206.3 1 82 35.1
2009-06-18 07:59:24 51°23.743 2°29.82 208 1.4 66 31.3
2009-06-18 08:00:23 51°23.755 2°29.856 199 1.6 58 35.4
2009-06-18 08:01:23 51°23.77 2°29.893 183 1.7 53 35.6
2009-06-18 08:02:24 51°23.781 2°29.928 179.2 1.2 106 35.2
2009-06-18 08:03:23 51°23.764 2°29.935 227.3 1.3 223 35.6
2009-06-18 08:04:23 51°23.757 2°29.891 255.1 2.4 260 35.7
2009-06-18 08:05:24 51°23.743 2°29.833 251.9 2.1 262 36.1
2009-06-18 08:06:23 51°23.734 2°29.786 239.7 1.5 241 34.2
2009-06-18 08:07:24 51°23.729 2°29.774 239.1 0.1 191 35.3
2009-06-18 08:08:24 51°23.732 2°29.783 247.3 0.7 56 34.2
2009-06-18 08:09:23 51°23.74 2°29.807 251.2 1.3 67 31.7
2009-06-18 08:10:23 51°23.749 2°29.841 239.2 1.6 66 35.7
2009-06-18 08:11:23 51°23.749 2°29.861 228.6 0.7 193 35.1
2009-06-18 08:12:24 51°23.746 2°29.824 264.3 2.2 272 35.3
2009-06-18 08:13:23 51°23.741 2°29.793 227.7 0.8 213 34.5
2009-06-18 08:14:24 51°23.73 2°29.789 228.7 0.8 216 30.5
2009-06-18 08:15:23 51°23.732 2°29.764 275.5 1.2 318 35.4
2009-06-18 08:16:24 51°23.748 2°29.762 284.6 1 22 35
2009-06-18 08:17:23 51°23.762 2°29.782 285.9 1.4 48 34.9
2009-06-18 08:18:24 51°23.778 2°29.799 275.7 1 354 35.4
2009-06-18 08:19:23 51°23.786 2°29.798 233.1 0.4 233 35.4
2009-06-18 08:20:24 51°23.774 2°29.775 246 1.6 252 34.8
2009-06-18 08:21:23 51°23.756 2°29.744 208.3 1.6 190 35.2
2009-06-18 08:22:23 51°23.738 2°29.755 193.4 1 127 35.4
2009-06-18 08:23:23 51°23.74 2°29.782 195.7 1.1 73 34.8
2009-06-18 08:24:23 51°23.746 2°29.813 199 1.3 71 35.1
2009-06-18 08:25:24 51°23.755 2°29.846 201.1 1.5 65 35.4
2009-06-18 08:26:23 51°23.765 2°29.88 197.3 1.5 61 35.8
2009-06-18 08:27:24 51°23.777 2°29.916 194 1.5 62 35.4
2009-06-18 08:28:24 51°23.79 2°29.952 189.9 1.6 60 35.5
2009-06-18 08:29:23 51°23.791 2°29.98 204.7 0.9 150 35.5
2009-06-18 08:30:24 51°23.765 2°29.957 226.1 3 225 35.6
2009-06-18 08:31:23 51°23.747 2°29.865 259.9 4.3 267 35.3
2009-06-18 08:32:24 51°23.736 2°29.777 242.6 2.3 252 35.1
2009-06-18 08:33:23 51°23.739 2°29.737 268.6 0.8 332 35
2009-06-18 08:34:24 51°23.751 2°29.752 258.8 1 47 35
2009-06-18 08:35:24 51°23.754 2°29.76 223.1 0.6 195 35
2009-06-18 08:36:23 51°23.746 2°29.767 206.4 0.6 130 34.9
2009-06-18 08:37:24 51°23.743 2°29.788 204.8 0.9 90 34.3
2009-06-18 08:38:24 51°23.746 2°29.812 211.2 1 73 35.1
2009-06-18 08:39:24 51°23.752 2°29.838 217.6 1.1 66 35.5
2009-06-18 08:40:23 51°23.76 2°29.865 221.1 1.2 67 35.8
2009-06-18 08:41:23 51°23.767 2°29.892 223.6 0.6 88 35.5
2009-06-18 08:42:23 51°23.76 2°29.873 251 2 261 35.6
2009-06-18 08:43:24 51°23.744 2°29.817 223.7 2.1 224 31.4
2009-06-18 08:44:24 51°23.732 2°29.772 259.7 1.5 279 35.2
2009-06-18 08:45:24 51°23.745 2°29.747 276.9 0.9 6 34.9
2009-06-18 08:46:26 51°23.758 2°29.786 282.5 1.6 63 -999
2009-06-18 08:47:27 51°23.764 2°29.782 235.3 1.3 232 35
2009-06-18 08:48:25 51°23.748 2°29.776 207 0.9 164 34.8
2009-06-18 08:49:23 51°23.74 2°29.79 199.4 0.9 101 34.5
2009-06-18 08:50:23 51°23.739 2°29.815 196.4 1 85 32.3
2009-06-18 08:51:23 51°23.744 2°29.843 204.9 1.2 67 35.7
2009-06-18 08:52:23 51°23.755 2°29.877 208.7 1.6 59 35.1
2009-06-18 08:53:24 51°23.761 2°29.906 212 0.7 106 35.4
2009-06-18 08:54:24 51°23.758 2°29.907 244.2 0.5 264 35.6
2009-06-18 08:55:24 51°23.75 2°29.877 238.1 1.8 242 35
2009-06-18 08:56:23 51°23.741 2°29.819 257 2.6 263 31.3
2009-06-18 08:57:24 51°23.732 2°29.767 239.8 0.5 251 35.2
2009-06-18 08:58:24 51°23.736 2°29.782 232.4 0.8 65 35
2009-06-18 08:59:24 51°23.742 2°29.806 219.9 1 72 34.6
2009-06-18 09:00:24 51°23.747 2°29.835 206.2 1.2 71 35.6
2009-06-18 09:01:24 51°23.754 2°29.865 198.2 1.3 71 35.2
2009-06-18 09:02:24 51°23.761 2°29.899 194 1.3 72 35.3
2009-06-18 09:03:23 51°23.765 2°29.932 195.6 1.1 95 35.6
2009-06-18 09:04:24 51°23.755 2°29.928 245.9 0.8 255 35.5
2009-06-18 09:05:23 51°23.745 2°29.868 249.7 3.2 257 34.9
2009-06-18 09:06:23 51°23.748 2°29.8 266.5 2.5 277 34.3
2009-06-18 09:07:24 51°23.745 2°29.759 232.9 0.7 232 34.7
2009-06-18 09:08:23 51°23.738 2°29.763 209.1 0.6 123 35.1
2009-06-18 09:09:24 51°23.735 2°29.784 197 1 88 34.8
2009-06-18 09:10:24 51°23.739 2°29.814 192.3 1.3 72 31
2009-06-18 09:11:24 51°23.748 2°29.847 192 1.5 62 35.4
2009-06-18 09:12:24 51°23.761 2°29.883 184.4 1.7 58 35.6
2009-06-18 09:13:23 51°23.778 2°29.918 171.5 1.5 63 34.9
2009-06-18 09:14:23 51°23.767 2°29.945 205.2 1.4 180 35.3
2009-06-18 09:15:23 51°23.756 2°29.928 253.4 1 268 35.4
2009-06-18 09:16:24 51°23.753 2°29.899 234.4 1.1 233 35.2
2009-06-18 09:17:24 51°23.741 2°29.869 247.9 1.6 259 34.9
2009-06-18 09:18:24 51°23.747 2°29.822 260.4 1.9 272 35
2009-06-18 09:19:23 51°23.737 2°29.782 237.2 1.9 246 34.7
2009-06-18 09:20:24 51°23.738 2°29.74 253.4 1.1 273 34.6
2009-06-18 09:21:24 51°23.743 2°29.73 246.1 0.3 348 34.7
2009-06-18 09:22:24 51°23.745 2°29.73 234.1 0.2 53 34.9
2009-06-18 09:23:24 51°23.745 2°29.742 209.8 0.7 89 34.5
2009-06-18 09:24:24 51°23.744 2°29.764 202.3 0.9 100 34.4
2009-06-18 09:25:24 51°23.743 2°29.79 199.7 1 89 34.1
2009-06-18 09:26:23 51°23.748 2°29.82 202.9 1.4 67 34.8
2009-06-18 09:27:24 51°23.761 2°29.856 198.2 1.7 56 35
2009-06-18 09:28:24 51°23.778 2°29.894 183.6 1.9 49 35.3
2009-06-18 09:29:23 51°23.799 2°29.929 170.6 1.7 47 35.2
2009-06-18 09:30:24 51°23.797 2°29.962 191.8 1.4 147 34.9
2009-06-18 09:31:24 51°23.781 2°29.949 248.8 1.5 264 34.9
2009-06-18 09:32:24 51°23.806 2°29.909 314.4 3 343 34.6
2009-06-18 09:33:24 51°23.868 2°29.928 18.2 4.5 28 34.4
2009-06-18 09:34:24 51°23.934 2°30.011 42.7 5.4 43 34.6
2009-06-18 09:35:24 51°24 2°30.12 47.3 5.8 46 34.9
2009-06-18 09:36:24 51°24.068 2°30.232 45.7 5.9 46 35.4
2009-06-18 09:37:24 51°24.138 2°30.345 45.1 6 45 35.1
2009-06-18 09:38:24 51°24.208 2°30.458 45.9 6 45 35
2009-06-18 09:39:24 51°24.278 2°30.572 45.2 6 45 34.8
2009-06-18 09:40:24 51°24.348 2°30.685 45.2 6 45 34.9
2009-06-18 09:41:24 51°24.419 2°30.797 45.4 5.9 44 35.2
2009-06-18 09:42:24 51°24.49 2°30.908 45.6 6 44 35.4
2009-06-18 09:43:24 51°24.558 2°31.011 44.8 5.1 43 35.7
2009-06-18 09:44:24 51°24.611 2°31.092 43.1 4 42 35.9
2009-06-18 09:45:24 51°24.656 2°31.156 40.2 3.4 41 35.2
2009-06-18 09:46:24 51°24.696 2°31.213 42.6 3.1 45 36.2
2009-06-18 09:47:24 51°24.733 2°31.268 41.8 2.9 43 37
2009-06-18 09:48:24 51°24.768 2°31.32 43.6 2.9 44 37.4
2009-06-18 09:49:24 51°24.795 2°31.394 92.6 3.2 77 36.7
2009-06-18 09:50:24 51°24.789 2°31.465 146.4 2.4 117 35.2
2009-06-18 09:51:24 51°24.771 2°31.498 181.3 1.1 128 34.7
2009-06-18 09:52:24 51°24.766 2°31.524 175.2 1 90 33
2009-06-18 09:53:24 51°24.769 2°31.551 174.9 1.2 64 30.2
2009-06-18 09:54:24 51°24.781 2°31.578 173.1 1.4 49 35.7
2009-06-18 09:55:24 51°24.798 2°31.603 163 1.4 36 35.5
2009-06-18 09:56:24 51°24.819 2°31.625 146.2 1.4 31 35.3
2009-06-18 09:57:24 51°24.839 2°31.644 129.5 1.3 31 34
2009-06-18 09:58:24 51°24.857 2°31.665 118.3 1.3 37 31.1
2009-06-18 09:59:24 51°24.874 2°31.688 107.9 1.4 41 30.3
2009-06-18 10:00:24 51°24.89 2°31.712 102.4 1.3 47 34.9
2009-06-18 10:01:24 51°24.905 2°31.739 103.9 1.3 50 35
2009-06-18 10:02:24 51°24.919 2°31.766 114 1.3 52 34.6
2009-06-18 10:03:24 51°24.931 2°31.791 132.8 1.2 53 33.1
2009-06-18 10:04:24 51°24.943 2°31.814 148.9 1.2 49 32.9
2009-06-18 10:05:24 51°24.956 2°31.839 156.2 1.3 51 34.2
2009-06-18 10:06:24 51°24.969 2°31.864 157.5 1.3 50 32.1
2009-06-18 10:07:24 51°24.984 2°31.89 158.3 1.4 48 32.2
2009-06-18 10:08:24 51°24.999 2°31.916 157 1.4 47 34
2009-06-18 10:09:24 51°25.015 2°31.942 155.1 1.3 47 34.1
2009-06-18 10:10:24 51°25.031 2°31.968 150.8 1.4 43 33.1
2009-06-18 10:11:24 51°25.047 2°31.992 144.8 1.3 42 33.3
2009-06-18 10:12:24 51°25.064 2°32.017 138.3 1.3 42 33.6
2009-06-18 10:13:25 51°25.081 2°32.041 131.6 1.4 43 31.8
2009-06-18 10:14:24 51°25.097 2°32.065 128.8 1.4 41 33.2
2009-06-18 10:15:24 51°25.112 2°32.092 130.9 1.5 65 32.5
2009-06-18 10:16:24 51°25.107 2°32.129 171.4 1.4 135 31.4
2009-06-18 10:17:24 51°25.087 2°32.135 215.7 1.3 206 31.7
2009-06-18 10:18:24 51°25.06 2°32.089 228.1 3.7 226 32.9
2009-06-18 10:19:24 51°25.007 2°32.005 225.1 4.9 224 33.1
2009-06-18 10:20:24 51°24.948 2°31.907 227.9 5.2 225 31
2009-06-18 10:21:24 51°24.889 2°31.8 229.1 5.4 229 34.3
2009-06-18 10:22:24 51°24.831 2°31.694 228.4 4.6 227 31.6
2009-06-18 10:23:24 51°24.796 2°31.648 206 0.8 178 35
2009-06-18 10:24:24 51°24.791 2°31.668 161.6 1 94 34.7
2009-06-18 10:25:24 51°24.792 2°31.7 151.1 1.2 86 33.7
2009-06-18 10:26:24 51°24.796 2°31.73 149 1.2 77 30.9
2009-06-18 10:27:24 51°24.801 2°31.761 152.3 1.2 71 32.1
2009-06-18 10:28:24 51°24.808 2°31.79 158 1.1 63 32.3
2009-06-18 10:29:24 51°24.817 2°31.818 165.6 1.1 63 34.7
2009-06-18 10:30:24 51°24.825 2°31.843 172.7 1 58 33.7
2009-06-18 10:31:24 51°24.834 2°31.867 176.5 1.1 58 32.6
2009-06-18 10:32:24 51°24.844 2°31.89 177.2 1 56 33.8
2009-06-18 10:33:24 51°24.854 2°31.914 171.1 1.1 57 33.9
2009-06-18 10:34:24 51°24.864 2°31.938 165.2 1.1 57 32.5
2009-06-18 10:35:24 51°24.873 2°31.961 159.7 1 56 32
2009-06-18 10:36:24 51°24.884 2°31.984 154.8 1.1 56 30.4
2009-06-18 10:37:24 51°24.894 2°32.007 148.9 0.9 55 33.1
2009-06-18 10:38:25 51°24.893 2°32.035 160.6 1.5 124 33.2
2009-06-18 10:39:24 51°24.864 2°32.055 190.2 2.6 178 29.9
2009-06-18 10:40:24 51°24.817 2°32.014 228 3.9 225 29.3
2009-06-18 10:41:24 51°24.779 2°31.917 249.2 4.5 253 32.7
2009-06-18 10:42:24 51°24.765 2°31.793 255.1 4.9 259 32.8
2009-06-18 10:43:24 51°24.759 2°31.675 272.3 2.6 284 34.3
2009-06-18 10:44:24 51°24.771 2°31.64 271.2 1 314 34.8
2009-06-18 10:45:24 51°24.782 2°31.633 263.7 0.7 349 34.8
2009-06-18 10:46:24 51°24.793 2°31.633 265.7 0.7 12 35.1
2009-06-18 10:47:24 51°24.805 2°31.64 275.2 0.8 24 34.8
2009-06-18 10:48:24 51°24.819 2°31.652 292.1 1 34 34.4
2009-06-18 10:49:24 51°24.833 2°31.67 312.1 1 42 32.5
2009-06-18 10:50:24 51°24.846 2°31.692 327.4 1.2 53 29.6
2009-06-18 10:51:24 51°24.857 2°31.716 343.7 1.1 55 32.1
2009-06-18 10:52:24 51°24.868 2°31.739 357.9 1 53 34.2
2009-06-18 10:53:24 51°24.877 2°31.76 7.9 1.1 51 34.2
2009-06-18 10:54:24 51°24.888 2°31.782 15.6 1 53 34.2
2009-06-18 10:55:24 51°24.898 2°31.803 20.7 1 54 34.3
2009-06-18 10:56:24 51°24.926 2°31.823 351.6 3.1 1 32.1
2009-06-18 10:57:24 51°24.965 2°31.78 282.6 2.3 301 33
2009-06-18 10:58:24 51°24.962 2°31.734 228 1.5 230 34.3
2009-06-18 10:59:24 51°24.944 2°31.726 195.2 1.4 180 34.1
2009-06-18 11:00:24 51°24.913 2°31.707 218.6 3.2 209 34.4
2009-06-18 11:01:24 51°24.85 2°31.667 211.5 4 206 31.2
2009-06-18 11:02:24 51°24.807 2°31.624 220.9 2.6 219 34.5
2009-06-18 11:03:24 51°24.778 2°31.595 200.4 1.7 188 35
2009-06-18 11:04:24 51°24.776 2°31.601 186.9 0.9 38 35.3
2009-06-18 11:05:24 51°24.772 2°31.609 196.7 0.9 182 34.7
2009-06-18 11:06:24 51°24.756 2°31.591 234.3 1.8 241 34.9
2009-06-18 11:07:24 51°24.751 2°31.547 257 1.4 272 30.5
2009-06-18 11:08:24 51°24.755 2°31.526 270.8 0.7 313 32.1
2009-06-18 11:09:24 51°24.765 2°31.516 287.7 0.8 343 32.8
2009-06-18 11:10:24 51°24.777 2°31.512 304.7 0.8 356 32.5
2009-06-18 11:11:24 51°24.79 2°31.513 319.1 0.9 7 32.2
2009-06-18 11:12:24 51°24.804 2°31.518 330.8 0.9 17 32.3
2009-06-18 11:13:24 51°24.818 2°31.525 337.9 0.9 15 32.8
2009-06-18 11:14:24 51°24.851 2°31.516 332.9 2.1 348 34
2009-06-18 11:15:24 51°24.882 2°31.509 335.8 1.7 357 34.8
2009-06-18 11:16:24 51°24.908 2°31.511 341.2 1.4 3 35
2009-06-18 11:17:24 51°24.932 2°31.522 350.6 1.5 18 34.9
2009-06-18 11:18:24 51°24.954 2°31.536 351.1 1.2 19 34.9
2009-06-18 11:19:24 51°24.973 2°31.548 339.3 1.1 22 34.4
2009-06-18 11:20:24 51°24.989 2°31.56 328.8 1 26 34.2
2009-06-18 11:21:24 51°25.002 2°31.571 321.2 0.9 31 33.9
2009-06-18 11:22:24 51°25.014 2°31.584 316.1 0.9 32 33.9
2009-06-18 11:23:24 51°25.026 2°31.599 314.3 0.8 44 34.1
2009-06-18 11:24:25 51°25.036 2°31.615 316.4 0.9 44 33.8
2009-06-18 11:25:24 51°25.045 2°31.632 318.8 0.8 52 34.2
2009-06-18 11:26:24 51°25.055 2°31.65 324.9 0.9 51 34.1
2009-06-18 11:27:24 51°25.062 2°31.668 333.2 0.8 59 34.1
2009-06-18 11:28:24 51°25.07 2°31.685 338.9 0.8 57 34.1
2009-06-18 11:29:24 51°25.076 2°31.702 345.5 0.8 61 33.7
2009-06-18 11:30:24 51°25.083 2°31.719 352.4 0.8 62 33.5
2009-06-18 11:31:24 51°25.088 2°31.736 358 0.7 67 33.7
2009-06-18 11:32:24 51°25.095 2°31.754 359.1 0.6 62 33.4
2009-06-18 11:33:25 51°25.1 2°31.77 357 0.6 65 33.4
2009-06-18 11:34:24 51°25.103 2°31.785 356.4 0.5 70 33.1
2009-06-18 11:35:25 51°25.105 2°31.8 357.8 0.5 81 33.2
2009-06-18 11:36:24 51°25.115 2°31.816 13.8 1.6 27 33.2
2009-06-18 11:37:25 51°25.145 2°31.883 82.3 3.7 81 33.1
2009-06-18 11:38:25 51°25.129 2°31.955 139.9 2.4 128 33.4
2009-06-18 11:39:24 51°25.11 2°31.991 147.4 1.5 127 32.4
2009-06-18 11:40:24 51°25.098 2°32.02 143 1.2 120 32.1
2009-06-18 11:41:24 51°25.09 2°32.044 140.6 0.9 112 32
2009-06-18 11:42:24 51°25.086 2°32.063 139.1 0.7 109 31.8
2009-06-18 11:43:24 51°25.083 2°32.081 140.1 0.6 101 32.2
2009-06-18 11:44:24 51°25.083 2°32.097 143.5 0.6 87 30.3
2009-06-18 11:45:24 51°25.083 2°32.11 146.7 0.5 87 31.8
2009-06-18 11:46:24 51°25.084 2°32.124 147.8 0.5 89 31.4
2009-06-18 11:47:24 51°25.085 2°32.137 150.7 0.5 79 30.9
2009-06-18 11:48:24 51°25.087 2°32.15 151.3 0.5 74 30.5
2009-06-18 11:49:25 51°25.088 2°32.162 151.2 0.5 80 30.1
2009-06-18 11:50:24 51°25.089 2°32.174 150.9 0.5 77 30.6
2009-06-18 11:51:25 51°25.091 2°32.186 152.9 0.5 76 30.4
2009-06-18 11:52:24 51°25.092 2°32.198 155.7 0.5 79 28.9
2009-06-18 11:53:24 51°25.094 2°32.21 156.9 0.4 79 28.2
2009-06-18 11:54:24 51°25.096 2°32.222 156.9 0.4 82 29.9
2009-06-18 11:55:24 51°25.097 2°32.233 157.6 0.4 84 28.6
2009-06-18 11:56:24 51°25.097 2°32.244 158 0.4 86 26.4
2009-06-18 11:57:24 51°25.088 2°32.258 169.6 1.4 158 27.2
2009-06-18 11:58:24 51°25.064 2°32.272 175.7 1.6 163 29
2009-06-18 11:59:24 51°25.038 2°32.281 179.7 1.6 170 30.8
2009-06-18 12:00:24 51°25.012 2°32.285 183.2 1.6 175 32.3
2009-06-18 12:01:24 51°24.985 2°32.288 186.2 1.5 177 28.4
2009-06-18 12:02:25 51°24.963 2°32.291 186.7 1.3 176 30.1
2009-06-18 12:03:24 51°24.944 2°32.292 188.3 1.1 175 30.9
2009-06-18 12:04:24 51°24.927 2°32.294 188.5 1 174 26.4
2009-06-18 12:05:25 51°24.91 2°32.297 188.2 1 170 26.2
2009-06-18 12:06:25 51°24.895 2°32.3 188 0.9 175 28
2009-06-18 12:07:25 51°24.88 2°32.302 190.1 0.9 178 25.2
2009-06-18 12:08:24 51°24.867 2°32.302 194 0.8 177 27.1
2009-06-18 12:09:24 51°24.854 2°32.301 197.5 1 189 27.2
2009-06-18 12:10:24 51°24.802 2°32.3 170.7 5.3 165 28.6
2009-06-18 12:11:24 51°24.731 2°32.43 114.5 7.9 118 19.8
2009-06-18 12:12:24 51°24.646 2°32.625 125.3 10.1 125 20.2
2009-06-18 12:13:24 51°24.539 2°32.861 126.4 11.5 128 19.9
2009-06-18 12:14:24 51°24.424 2°33.111 126.7 11.8 127 25.6
2009-06-18 12:15:24 51°24.309 2°33.366 125.4 11.9 126 30.6
2009-06-18 12:16:24 51°24.192 2°33.622 125.9 11.9 127 29.4
2009-06-18 12:17:24 51°24.075 2°33.878 126.7 11.9 127 30.6
2009-06-18 12:18:24 51°23.958 2°34.131 126.5 11.5 126 31.1
2009-06-18 12:19:24 51°23.845 2°34.374 126.6 11.4 128 33.1
2009-06-18 12:20:24 51°23.732 2°34.615 125.7 11.3 125 33.4
2009-06-18 12:21:24 51°23.617 2°34.853 126.9 11.4 129 34
2009-06-18 12:22:24 51°23.5 2°35.091 127 11.3 131 33.2
2009-06-18 12:23:24 51°23.34 2°35.251 154 11.6 158 31.8
2009-06-18 12:24:24 51°23.157 2°35.363 156.7 11.8 158 28.5
2009-06-18 12:25:24 51°22.975 2°35.478 155.8 11.7 156 21.4
2009-06-18 12:26:24 51°22.794 2°35.597 156.5 11.7 158 24.4
2009-06-18 12:27:24 51°22.616 2°35.722 155.3 11.6 156 25.9
2009-06-18 12:28:24 51°22.441 2°35.851 154 11.6 155 29.2
2009-06-18 12:29:24 51°22.265 2°35.976 154 11.6 157 29.8
2009-06-18 12:30:24 51°22.087 2°36.1 154 11.7 156 29.9
2009-06-18 12:31:24 51°21.907 2°36.224 154.9 11.9 158 31.1
2009-06-18 12:32:24 51°21.729 2°36.357 146.8 11.8 149 31.4
2009-06-18 12:33:24 51°21.564 2°36.524 144.6 11.7 143 31.8
2009-06-18 12:34:24 51°21.429 2°36.742 130 11.4 128 26.8
2009-06-18 12:35:24 51°21.308 2°36.972 128.9 11.2 132 24.2
2009-06-18 12:36:24 51°21.188 2°37.199 127.8 11.2 132 23.5
2009-06-18 12:37:24 51°21.064 2°37.422 129.5 11.3 131 24.5
2009-06-18 12:38:24 51°20.94 2°37.648 129 11.3 132 24.4
2009-06-18 12:39:24 51°20.814 2°37.87 129.9 11.4 134 23.5
2009-06-18 12:40:24 51°20.685 2°38.096 129.9 11.5 132 23.5
2009-06-18 12:41:24 51°20.555 2°38.322 130.8 11.5 134 23.5
2009-06-18 12:42:24 51°20.424 2°38.548 131.5 11.5 134 24
2009-06-18 12:43:24 51°20.298 2°38.776 128.7 11.4 131 24
2009-06-18 12:44:24 51°20.172 2°39.002 129.7 11.5 134 24
2009-06-18 12:45:24 51°20.045 2°39.227 130 11.4 135 25.2
2009-06-18 12:46:24 51°19.918 2°39.448 131 11.3 133 27.2
2009-06-18 12:47:24 51°19.789 2°39.667 129.9 11.4 134 29.3
2009-06-18 12:48:24 51°19.654 2°39.886 131 11.6 133 29.2
2009-06-18 12:49:24 51°19.524 2°40.108 129.1 11.4 130 25.6
2009-06-18 12:50:24 51°19.393 2°40.329 129.7 11.3 134 18.7
2009-06-18 12:51:24 51°19.262 2°40.54 131.2 11.2 135 19.5
2009-06-18 12:52:24 51°19.131 2°40.754 130.1 11.4 135 14.8
2009-06-18 12:53:24 51°18.999 2°40.973 128.7 11.4 133 18.4
2009-06-18 12:54:24 51°18.869 2°41.193 130.5 11.3 131 20.2
2009-06-18 12:55:24 51°18.741 2°41.414 129.7 11.2 131 17.6
2009-06-18 12:56:24 51°18.615 2°41.634 131 11.2 133 20.1
2009-06-18 12:57:24 51°18.485 2°41.85 130 11.2 134 22.6
2009-06-18 12:58:24 51°18.357 2°42.067 130.8 11.3 130 23
2009-06-18 12:59:24 51°18.226 2°42.284 131 11.5 132 23.7
2009-06-18 13:00:24 51°18.093 2°42.504 129.6 11.4 133 24
2009-06-18 13:01:24 51°17.961 2°42.725 129.3 11.5 132 23.4
2009-06-18 13:02:24 51°17.841 2°42.958 124.6 11.2 128 20.4
2009-06-18 13:03:24 51°17.727 2°43.19 125 11 127 11.7
2009-06-18 13:04:24 51°17.615 2°43.416 124.2 10.9 128 11.4
2009-06-18 13:05:24 51°17.495 2°43.645 126.1 11.3 130 15.1
2009-06-18 13:06:24 51°17.373 2°43.875 124.4 11.5 130 15.6
2009-06-18 13:07:24 51°17.254 2°44.112 124.8 11.5 130 15.7
2009-06-18 13:08:24 51°17.133 2°44.349 125.1 11.4 128 15.6
2009-06-18 13:09:24 51°17.018 2°44.589 124.3 11.5 129 15
2009-06-18 13:10:24 51°16.896 2°44.825 126.1 11.4 130 11.8
2009-06-18 13:11:24 51°16.775 2°45.062 125.2 11.7 127 11.3
2009-06-18 13:12:24 51°16.661 2°45.308 124.3 11.6 125 10.8
2009-06-18 13:13:24 51°16.55 2°45.559 121.8 11.4 123 10.8
2009-06-18 13:14:24 51°16.442 2°45.809 121.7 11.5 126 10.1
2009-06-18 13:15:24 51°16.335 2°46.06 120.2 11.4 121 9.5
2009-06-18 13:16:24 51°16.244 2°46.324 114.4 11.4 114 9.8
2009-06-18 13:17:24 51°16.176 2°46.604 106.1 11.3 108 11.9
2009-06-18 13:18:24 51°16.111 2°46.887 108.9 11.4 111 13.1
2009-06-18 13:19:24 51°16.044 2°47.169 107.5 11.3 110 15.6
2009-06-18 13:20:24 51°15.978 2°47.451 106.8 11.4 110 15.7
2009-06-18 13:21:24 51°15.912 2°47.73 107.9 11.2 111 15
2009-06-18 13:22:24 51°15.841 2°48.004 109.6 11.2 113 13.8
2009-06-18 13:23:24 51°15.779 2°48.281 106 11.1 108 12.1
2009-06-18 13:24:24 51°15.723 2°48.56 105.7 10.9 107 10.7
2009-06-18 13:25:24 51°15.666 2°48.836 107.6 11 111 10.1
2009-06-18 13:26:24 51°15.61 2°49.112 103.9 10.9 107 10.5
2009-06-18 13:27:24 51°15.553 2°49.391 104.6 11 106 12.3
2009-06-18 13:28:24 51°15.505 2°49.67 102.7 10.9 105 12.5
2009-06-18 13:29:24 51°15.46 2°49.952 101.5 11 103 12.5
2009-06-18 13:30:24 51°15.42 2°50.236 101.1 10.9 104 12.2
2009-06-18 13:31:24 51°15.382 2°50.522 99.5 11 101 12.4
2009-06-18 13:32:24 51°15.351 2°50.808 97.2 10.9 100 12.2
2009-06-18 13:33:24 51°15.327 2°51.094 95.2 10.9 97 12.1
2009-06-18 13:34:24 51°15.298 2°51.381 97 10.9 100 11.8
2009-06-18 13:35:24 51°15.259 2°51.663 102.2 10.8 107 11.5
2009-06-18 13:36:24 51°15.192 2°51.934 110.3 11 114 11
2009-06-18 13:37:24 51°15.112 2°52.198 112.5 11.1 117 10.3
2009-06-18 13:38:24 51°15.032 2°52.463 111.9 10.9 114 10
2009-06-18 13:39:24 51°14.955 2°52.725 110.5 10.8 114 9.7
2009-06-18 13:40:24 51°14.885 2°52.989 108.1 10.8 111 9.4
2009-06-18 13:41:24 51°14.823 2°53.257 106.8 10.8 111 9.2
2009-06-18 13:42:24 51°14.758 2°53.522 107 10.7 111 9.3
2009-06-18 13:43:24 51°14.692 2°53.787 108.8 10.8 112 9.6
2009-06-18 13:44:24 51°14.624 2°54.053 108.7 10.8 112 10.3
2009-06-18 13:45:24 51°14.556 2°54.319 107.6 10.8 111 10
2009-06-18 13:46:24 51°14.483 2°54.58 111.5 10.8 114 9.7
2009-06-18 13:47:24 51°14.409 2°54.837 108.5 10.6 113 9.4
2009-06-18 13:48:24 51°14.333 2°55.099 120.9 11.2 122 9.8
2009-06-18 13:49:24 51°14.228 2°55.307 135 9.2 136 10
2009-06-18 13:50:24 51°14.102 2°55.426 154.3 8.5 155 9.7
2009-06-18 13:51:24 51°13.976 2°55.519 155.7 7.7 155 10.1
2009-06-18 13:52:24 51°13.875 2°55.592 156.1 6.4 155 9.5
2009-06-18 13:53:24 51°13.781 2°55.68 144.4 6.6 142 9.6
2009-06-18 13:54:24 51°13.718 2°55.778 128.6 4 127 11.8